This is the latest recevied weather packets stored in our database for station/object DL3CSM-13. If no packets are shown the sender has not sent any weather packets the latest 10 day(s).
| Time | Temp. | Humidity | Pressure | Rain* | Wind** | Luminosity | Snow |
|---|---|---|---|---|---|---|---|
| 1777122011 | 22.78° C | 25% | 1016.8 hPa | 0 mm | - | - | - |
| 1777121111 | 22.78° C | 26% | 1016.8 hPa | 0 mm | - | - | - |
| 1777120211 | 22.22° C | 26% | 1017.1 hPa | 0 mm | - | - | - |
| 1777119312 | 21.67° C | 28% | 1017.2 hPa | 0 mm | - | - | - |
| 1777117511 | 20.56° C | 30% | 1017.5 hPa | 0 mm | - | - | - |
| 1777116611 | 20.56° C | 31% | 1017.5 hPa | 0 mm | - | - | - |
| 1777115712 | 20.56° C | 29% | 1017.6 hPa | 0 mm | - | - | - |
| 1777113911 | 20° C | 31% | 1017.8 hPa | 0 mm | - | - | - |
| 1777113012 | 19.44° C | 33% | 1018 hPa | 0 mm | - | - | - |
| 1777109411 | 18.33° C | 35% | 1018.4 hPa | 0 mm | - | - | - |
| 1777108511 | 18.33° C | 39% | 1018.5 hPa | 0 mm | - | - | - |
| 1777107611 | 17.22° C | 41% | 1018.4 hPa | 0 mm | - | - | - |
| 1777104911 | 15° C | 48% | 1018.5 hPa | 0 mm | - | - | - |
| 1777104011 | 13.33° C | 51% | 1018.6 hPa | 0 mm | - | - | - |
| 1777102212 | 11.67° C | 54% | 1018.7 hPa | 0 mm | - | - | - |
| 1777101311 | 11.11° C | 54% | 1018.7 hPa | 0 mm | - | - | - |
| 1777100411 | 10.56° C | 56% | 1018.8 hPa | 0 mm | - | - | - |
| 1777099511 | 9.44° C | 59% | 1018.8 hPa | 0 mm | - | - | - |
| 1777098611 | 8.89° C | 61% | 1018.9 hPa | 0 mm | - | - | - |
| 1777097711 | 7.78° C | 63% | 1018.9 hPa | 0 mm | - | - | - |
| 1777095911 | 5.56° C | 70% | 1018.8 hPa | 0 mm | - | - | - |
| 1777095011 | 4.44° C | 72% | 1018.9 hPa | 0 mm | - | - | - |
| 1777094111 | 3.33° C | 74% | 1018.8 hPa | 0 mm | - | - | - |
| 1777093211 | 3.33° C | 74% | 1018.6 hPa | 0 mm | - | - | - |
| 1777092311 | 3.33° C | 72% | 1018.5 hPa | 0 mm | - | - | - |
* Rain latest hour (hover to see other rain measurements)
** Current wind speed in m/s (hover to see current wind gust speed)